Time;durP1;ratioP1;P1;durP2;ratioP2;P2;SDS_P1;SDS_P2;PMS_P1;PMS_P2;Temp;Humidity;BMP_temperature;BMP_pressure;BME280_temperature;BME280_humidity;BME280_pressure;Samples;Min_cycle;Max_cycle;Signal;HPM_P1;HPM_P2
2022/01/21 00:01:25;;;;;;;7.28;3.80;;;-0.40;99.90;;;;;;5073102;28;20426;-75
2022/01/21 00:03:51;;;;;;;5.75;2.55;;;-0.40;99.90;;;;;;5072206;28;20036;-76
2022/01/21 00:06:17;;;;;;;5.90;3.03;;;-0.50;99.90;;;;;;5073418;28;20024;-77
2022/01/21 00:08:44;;;;;;;7.60;3.22;;;-0.50;99.90;;;;;;5072827;28;20452;-76
2022/01/21 00:11:12;;;;;;;5.90;2.78;;;-0.60;99.90;;;;;;5069918;28;20035;-76
2022/01/21 00:13:38;;;;;;;5.93;2.92;;;-0.60;99.90;;;;;;5082137;28;20036;-75
2022/01/21 00:16:10;;;;;;;6.47;2.70;;;-0.70;99.90;;;;;;5073069;28;20090;-74
2022/01/21 00:18:38;;;;;;;7.45;3.30;;;-0.70;99.90;;;;;;5072735;28;20051;-77
2022/01/21 00:32:05;;;;;;;7.18;3.13;;;-0.80;99.90;;;;;;5054191;28;20094;-75
2022/01/21 00:34:31;;;;;;;9.98;3.55;;;-0.80;99.90;;;;;;5071055;28;20115;-75
2022/01/21 00:36:56;;;;;;;5.90;3.10;;;-0.80;99.90;;;;;;5072449;28;20142;-76
2022/01/21 00:39:25;;;;;;;9.43;3.60;;;-0.80;99.90;;;;;;5070863;28;20129;-75
2022/01/21 00:44:35;;;;;;;8.45;3.20;;;-0.90;99.90;;;;;;5073095;28;20067;-76
2022/01/21 00:47:01;;;;;;;8.02;3.17;;;-0.90;99.90;;;;;;5072813;28;20093;-76
2022/01/21 00:49:27;;;;;;;6.43;3.43;;;-0.80;99.90;;;;;;5069429;28;20048;-76
2022/01/21 00:51:53;;;;;;;6.97;3.13;;;-0.80;99.90;;;;;;5072286;28;20257;-75
2022/01/21 00:54:19;;;;;;;6.47;3.33;;;-0.80;99.90;;;;;;5072887;28;20470;-76
2022/01/21 00:56:45;;;;;;;7.20;3.47;;;-0.80;99.90;;;;;;5072820;28;20076;-75
2022/01/21 00:59:10;;;;;;;6.57;2.80;;;-0.80;99.90;;;;;;5063092;28;20049;-76
2022/01/21 01:01:37;;;;;;;7.13;3.42;;;-0.80;99.90;;;;;;5052265;28;20036;-76
2022/01/21 01:04:03;;;;;;;7.40;3.60;;;-0.90;99.90;;;;;;5069101;28;20041;-76
2022/01/21 01:06:29;;;;;;;7.32;2.90;;;-0.80;99.90;;;;;;5071007;28;20035;-76
2022/01/21 01:08:56;;;;;;;9.93;3.40;;;-0.90;99.90;;;;;;5065676;28;20120;-76
2022/01/21 01:22:05;;;;;;;6.40;2.80;;;-0.90;99.90;;;;;;5053613;28;20036;-76
2022/01/21 01:30:00;;;;;;;6.45;2.53;;;-1.00;99.90;;;;;;5051423;28;20126;-76
2022/01/21 01:32:29;;;;;;;5.85;2.72;;;-1.00;99.90;;;;;;5056456;28;20142;-76
2022/01/21 01:34:55;;;;;;;7.03;2.53;;;-1.00;99.90;;;;;;5072433;28;20059;-76
2022/01/21 01:40:28;;;;;;;7.68;2.67;;;-1.00;99.90;;;;;;5075491;28;20086;-77
2022/01/21 01:50:49;;;;;;;7.40;2.70;;;-1.20;99.90;;;;;;5071424;28;20029;-76
2022/01/21 01:53:17;;;;;;;7.57;2.65;;;-1.30;99.90;;;;;;5072041;28;20391;-76
2022/01/21 01:55:44;;;;;;;6.40;2.90;;;-1.30;99.90;;;;;;5069985;28;20373;-74
2022/01/21 01:58:13;;;;;;;7.00;2.50;;;-1.20;99.90;;;;;;5061781;28;20043;-75
2022/01/21 02:00:39;;;;;;;7.70;3.40;;;-1.30;99.90;;;;;;5071289;28;20111;-75
2022/01/21 02:03:11;;;;;;;7.15;2.75;;;-1.30;99.90;;;;;;5070222;28;20043;-74
2022/01/21 02:05:37;;;;;;;6.90;2.50;;;-1.30;99.90;;;;;;5066208;28;20033;-75
2022/01/21 02:08:03;;;;;;;4.55;2.40;;;-1.30;99.90;;;;;;5060952;28;20371;-75
2022/01/21 02:10:29;;;;;;;5.20;2.60;;;-1.30;99.90;;;;;;5070824;28;20039;-75
2022/01/21 02:13:05;;;;;;;4.57;2.53;;;-1.40;99.90;;;;;;5069857;28;20029;-75
2022/01/21 02:15:35;;;;;;;6.38;2.33;;;-1.40;99.90;;;;;;5055100;28;20029;-74
2022/01/21 02:23:30;;;;;;;6.18;2.33;;;-1.40;99.90;;;;;;5063027;28;20152;-75
2022/01/21 02:25:55;;;;;;;4.03;2.20;;;-1.40;99.90;;;;;;5051350;28;20503;-75
2022/01/21 02:28:21;;;;;;;6.37;2.40;;;-1.50;99.90;;;;;;5063211;28;20039;-75
2022/01/21 02:30:58;;;;;;;5.53;1.80;;;-1.50;99.90;;;;;;5071078;28;20504;-75
2022/01/21 02:33:24;;;;;;;6.70;2.55;;;-1.50;99.90;;;;;;5070650;28;20114;-76
2022/01/21 02:35:50;;;;;;;8.35;2.65;;;-1.50;99.90;;;;;;5066129;28;20032;-76
2022/01/21 02:38:16;;;;;;;4.80;2.30;;;-1.50;99.90;;;;;;5073338;28;20044;-76
2022/01/21 02:40:43;;;;;;;4.38;2.35;;;-1.50;99.90;;;;;;5073312;28;20265;-76
2022/01/21 02:43:10;;;;;;;6.95;1.90;;;-1.50;99.90;;;;;;5064930;28;20067;-76
2022/01/21 02:45:37;;;;;;;4.25;2.30;;;-1.50;99.90;;;;;;5074632;28;20043;-76
2022/01/21 02:48:06;;;;;;;6.43;2.53;;;-1.50;99.90;;;;;;5073983;28;20029;-75
2022/01/21 02:50:32;;;;;;;4.28;2.50;;;-1.50;99.90;;;;;;5069137;28;20496;-75
2022/01/21 02:53:11;;;;;;;5.53;2.67;;;-1.40;99.90;;;;;;5063473;28;20028;-76
2022/01/21 02:55:37;;;;;;;7.28;2.28;;;-1.50;99.90;;;;;;5073091;28;20446;-75
2022/01/21 02:58:03;;;;;;;8.00;2.67;;;-1.50;99.90;;;;;;5072533;28;20036;-75
2022/01/21 03:00:29;;;;;;;4.33;2.37;;;-1.50;99.90;;;;;;5058186;28;20485;-75
2022/01/21 03:02:55;;;;;;;5.75;2.25;;;-1.50;99.90;;;;;;5062958;28;20083;-75
2022/01/21 03:05:21;;;;;;;4.85;2.00;;;-1.50;99.90;;;;;;5073055;28;20488;-76
2022/01/21 03:07:48;;;;;;;5.30;2.40;;;-1.50;99.90;;;;;;5070716;28;20099;-76
2022/01/21 03:10:16;;;;;;;4.47;2.58;;;-1.50;99.90;;;;;;5055211;28;20041;-75
2022/01/21 03:12:41;;;;;;;6.63;2.17;;;-1.50;99.90;;;;;;5058957;28;20020;-75
2022/01/21 03:15:08;;;;;;;7.78;2.55;;;-1.50;99.90;;;;;;5074355;28;20470;-76
2022/01/21 03:17:34;;;;;;;6.32;2.45;;;-1.60;99.90;;;;;;5071171;28;20392;-76
2022/01/21 03:20:01;;;;;;;5.32;2.42;;;-1.60;99.90;;;;;;5073913;28;20484;-76
2022/01/21 03:22:26;;;;;;;7.60;2.78;;;-1.60;99.90;;;;;;5071873;28;20536;-76
2022/01/21 03:24:53;;;;;;;5.17;2.47;;;-1.60;99.90;;;;;;5073922;28;20116;-77
2022/01/21 03:27:19;;;;;;;5.38;2.58;;;-1.60;99.90;;;;;;5071813;28;20056;-74
2022/01/21 03:29:45;;;;;;;4.95;1.98;;;-1.60;99.90;;;;;;5074104;28;20075;-76
2022/01/21 03:32:11;;;;;;;6.65;2.28;;;-1.60;99.90;;;;;;5071838;28;20123;-74
2022/01/21 03:34:37;;;;;;;3.50;2.10;;;-1.60;99.90;;;;;;5072602;28;20037;-75
2022/01/21 03:37:03;;;;;;;6.47;2.77;;;-1.60;99.90;;;;;;5055561;28;20346;-75
2022/01/21 03:39:29;;;;;;;6.88;2.50;;;-1.60;99.90;;;;;;5072279;28;20636;-76
2022/01/21 03:41:54;;;;;;;5.30;2.40;;;-1.50;99.90;;;;;;5072655;28;20040;-74
2022/01/21 03:44:20;;;;;;;7.53;2.70;;;-1.50;99.90;;;;;;5068186;28;20036;-74
2022/01/21 03:46:46;;;;;;;5.40;1.85;;;-1.50;99.90;;;;;;5053332;28;20025;-75
2022/01/21 03:49:12;;;;;;;8.30;2.97;;;-1.60;99.90;;;;;;5072450;28;20045;-74
2022/01/21 03:51:38;;;;;;;7.60;2.85;;;-1.60;99.90;;;;;;5073022;28;20488;-75
2022/01/21 03:54:04;;;;;;;9.10;2.83;;;-1.60;99.90;;;;;;5062395;28;20033;-75
2022/01/21 03:56:30;;;;;;;8.70;2.90;;;-1.60;99.90;;;;;;5073152;28;20029;-75
2022/01/21 03:58:56;;;;;;;4.63;2.23;;;-1.70;99.90;;;;;;5073135;28;20490;-75
2022/01/21 04:01:24;;;;;;;5.32;2.30;;;-1.70;99.90;;;;;;5073021;28;20021;-74
2022/01/21 04:03:51;;;;;;;6.15;2.45;;;-1.70;99.90;;;;;;5064205;28;20029;-74
2022/01/21 04:06:16;;;;;;;;;;;-1.70;99.90;;;;;;5069272;28;20067;-75
2022/01/21 04:08:42;;;;;;;7.10;2.40;;;-1.70;99.90;;;;;;5067812;28;19920;-75
2022/01/21 04:11:07;;;;;;;7.40;2.70;;;-1.70;99.90;;;;;;5071577;28;20487;-75
2022/01/21 04:13:34;;;;;;;7.20;2.93;;;-1.70;99.90;;;;;;5067304;28;20120;-76
2022/01/21 04:16:00;;;;;;;7.70;2.65;;;-1.70;99.90;;;;;;5065601;28;20436;-75
2022/01/21 04:18:26;;;;;;;5.57;2.40;;;-1.80;99.90;;;;;;5065495;28;20029;-76
2022/01/21 04:20:53;;;;;;;7.60;2.88;;;-1.80;99.90;;;;;;5071411;28;20043;-76
2022/01/21 04:23:20;;;;;;;6.97;3.55;;;-1.80;99.90;;;;;;5060216;28;20040;-75
2022/01/21 04:25:46;;;;;;;8.38;2.83;;;-1.90;99.90;;;;;;5052949;28;20132;-75
2022/01/21 04:28:12;;;;;;;7.15;2.88;;;-1.90;99.90;;;;;;5061837;28;20385;-76
2022/01/21 04:30:38;;;;;;;10.60;3.83;;;-1.90;99.90;;;;;;5072367;28;20063;-75
2022/01/21 04:33:05;;;;;;;5.72;2.92;;;-1.90;99.90;;;;;;5071455;28;20028;-75
2022/01/21 04:35:32;;;;;;;10.50;4.00;;;-1.90;99.90;;;;;;5065840;28;20432;-74
2022/01/21 04:38:02;;;;;;;7.93;3.13;;;-1.90;99.90;;;;;;5061315;28;20068;-75
2022/01/21 04:40:31;;;;;;;7.32;3.63;;;-1.90;99.90;;;;;;5072179;28;20028;-75
2022/01/21 04:48:28;;;;;;;4.95;2.80;;;-1.90;99.90;;;;;;5071833;28;20079;-75
2022/01/21 04:50:59;;;;;;;6.35;3.38;;;-1.90;99.90;;;;;;5067266;28;20441;-77
2022/01/21 04:53:27;;;;;;;7.13;3.50;;;-1.90;99.90;;;;;;5069258;28;20068;-76
2022/01/21 04:55:53;;;;;;;5.68;2.92;;;-2.00;99.90;;;;;;5071980;28;20016;-76
2022/01/21 04:58:19;;;;;;;8.95;2.90;;;-2.00;99.90;;;;;;5071694;28;20434;-75
2022/01/21 05:00:45;;;;;;;;;;;-2.10;99.90;;;;;;5066513;28;20029;-76
2022/01/21 05:03:12;;;;;;;5.55;2.90;;;-2.10;99.90;;;;;;5061547;28;19970;-75
2022/01/21 05:05:39;;;;;;;7.00;3.20;;;-2.10;99.90;;;;;;5070527;28;20457;-75
2022/01/21 05:08:09;;;;;;;9.63;3.88;;;-2.10;99.90;;;;;;5071638;28;20032;-75
2022/01/21 05:10:36;;;;;;;6.15;3.40;;;-2.10;99.90;;;;;;5067169;28;20037;-75
2022/01/21 05:13:02;;;;;;;6.18;3.20;;;-2.00;99.90;;;;;;5071230;28;20037;-75
2022/01/21 05:16:00;;;;;;;6.88;3.60;;;-2.00;99.90;;;;;;5071573;28;20075;-75
2022/01/21 05:18:16;;;;;;;11.40;3.63;;;-2.00;99.90;;;;;;5070978;28;20075;-75
2022/01/21 05:20:42;;;;;;;8.47;3.60;;;-2.00;99.90;;;;;;5062943;28;20060;-74
2022/01/21 05:23:07;;;;;;;8.00;3.67;;;-2.00;99.90;;;;;;5064872;28;20040;-75
2022/01/21 05:25:33;;;;;;;8.87;3.90;;;-2.00;99.90;;;;;;5071674;28;20032;-75
2022/01/21 05:27:59;;;;;;;6.20;3.40;;;-2.00;99.90;;;;;;5071475;28;20032;-75
2022/01/21 05:30:26;;;;;;;11.48;4.38;;;-1.70;99.90;;;;;;5055165;28;20325;-75
2022/01/21 05:32:52;;;;;;;6.63;3.25;;;-1.90;99.90;;;;;;5060162;28;20357;-75
2022/01/21 05:35:17;;;;;;;6.27;3.07;;;-1.90;99.90;;;;;;5071486;28;20036;-75
2022/01/21 05:37:43;;;;;;;8.47;3.33;;;-1.90;99.90;;;;;;5066989;28;20012;-76
2022/01/21 05:40:14;;;;;;;13.03;3.83;;;-1.90;99.90;;;;;;5051430;28;20270;-76
2022/01/21 05:42:40;;;;;;;8.23;3.33;;;-1.90;99.90;;;;;;5056447;28;20020;-76
2022/01/21 05:47:36;;;;;;;7.22;3.10;;;-1.80;99.90;;;;;;5071158;28;20036;-74
2022/01/21 05:50:02;;;;;;;13.05;3.60;;;-1.80;99.90;;;;;;5069578;28;20045;-76
2022/01/21 05:52:35;;;;;;;8.05;3.47;;;-1.80;99.90;;;;;;5066512;28;20029;-74
2022/01/21 05:55:01;;;;;;;6.30;3.38;;;-1.80;99.90;;;;;;5069676;28;20036;-75
2022/01/21 05:57:29;;;;;;;5.88;2.67;;;-1.80;99.90;;;;;;5069692;28;20482;-75
2022/01/21 05:59:56;;;;;;;7.85;3.67;;;-1.80;99.90;;;;;;5071626;28;20074;-76
2022/01/21 06:02:21;;;;;;;8.80;3.80;;;-1.80;99.90;;;;;;5065946;28;20070;-75
2022/01/21 06:04:50;;;;;;;10.40;3.13;;;-1.80;99.90;;;;;;5072453;28;20040;-76
2022/01/21 06:07:16;;;;;;;8.77;3.78;;;-1.80;99.90;;;;;;5073817;28;20032;-76
2022/01/21 06:09:43;;;;;;;5.40;2.63;;;-1.80;99.90;;;;;;5075800;28;20063;-76
2022/01/21 06:12:09;;;;;;;;;;;-1.80;99.90;;;;;;5072397;28;20054;-75
2022/01/21 06:14:36;;;;;;;7.82;2.90;;;-1.80;99.90;;;;;;5073891;28;19913;-76
2022/01/21 06:17:02;;;;;;;7.32;3.70;;;-1.80;99.90;;;;;;5075091;28;20035;-75
2022/01/21 06:19:28;;;;;;;8.68;3.92;;;-1.70;99.90;;;;;;5064976;28;20049;-75
2022/01/21 06:21:54;;;;;;;8.67;3.60;;;-1.70;99.90;;;;;;5054612;28;20167;-76
2022/01/21 06:24:20;;;;;;;7.07;2.87;;;-1.70;99.90;;;;;;5074979;28;20056;-75
2022/01/21 06:26:46;;;;;;;8.98;4.38;;;-1.80;99.90;;;;;;5075063;28;20024;-74
2022/01/21 06:29:11;;;;;;;11.30;4.10;;;-1.70;99.90;;;;;;5058620;28;20041;-74
2022/01/21 06:31:37;;;;;;;11.05;3.45;;;-1.60;99.90;;;;;;5053073;28;20017;-74
2022/01/21 06:34:03;;;;;;;7.22;3.60;;;-1.60;99.90;;;;;;5073134;28;20609;-75
2022/01/21 06:36:29;;;;;;;7.17;3.17;;;-1.60;99.90;;;;;;5074842;28;20060;-74
2022/01/21 06:38:55;;;;;;;10.63;3.70;;;-1.60;99.90;;;;;;5060944;28;20044;-74
2022/01/21 06:41:21;;;;;;;9.43;3.97;;;-1.50;99.90;;;;;;5069901;28;20266;-75
2022/01/21 06:43:47;;;;;;;7.53;3.50;;;-1.60;99.90;;;;;;5070217;28;20047;-74
2022/01/21 06:46:13;;;;;;;9.93;3.75;;;-1.50;99.90;;;;;;5074534;28;20029;-74
2022/01/21 06:48:39;;;;;;;8.63;4.38;;;-1.40;99.90;;;;;;5069424;28;20668;-68
2022/01/21 06:51:06;;;;;;;8.13;3.97;;;-1.40;99.90;;;;;;5073939;28;20421;-68
2022/01/21 06:53:31;;;;;;;;;;;-1.40;99.90;;;;;;5074524;28;20360;-67
2022/01/21 06:55:57;;;;;;;6.68;3.42;;;-1.30;99.90;;;;;;5071611;28;20302;-68
2022/01/21 06:58:23;;;;;;;5.73;2.47;;;-1.20;99.90;;;;;;5072211;28;20567;-68
2022/01/21 07:00:49;;;;;;;9.00;3.50;;;-1.20;99.90;;;;;;5068513;28;20622;-67
2022/01/21 07:03:14;;;;;;;9.33;3.33;;;-1.20;99.90;;;;;;5070365;28;20043;-67
2022/01/21 07:05:40;;;;;;;8.17;3.67;;;-1.20;99.90;;;;;;5062011;28;20269;-67
2022/01/21 07:08:06;;;;;;;9.00;3.90;;;-1.20;99.90;;;;;;5068591;28;20067;-68
2022/01/21 07:10:31;;;;;;;6.53;3.37;;;-1.00;99.90;;;;;;5073676;28;20269;-68
2022/01/21 07:12:58;;;;;;;6.53;3.03;;;-0.70;99.90;;;;;;5073324;28;20044;-67
2022/01/21 07:15:24;;;;;;;8.48;3.50;;;-0.80;99.90;;;;;;5067112;28;20027;-68
2022/01/21 07:17:52;;;;;;;6.35;3.50;;;-0.40;99.90;;;;;;5067277;28;20029;-68
2022/01/21 07:20:21;;;;;;;8.75;3.78;;;-0.30;99.90;;;;;;5071339;28;20032;-66
2022/01/21 07:22:47;;;;;;;7.85;3.55;;;-0.40;99.90;;;;;;5065194;28;20029;-66
2022/01/21 07:25:14;;;;;;;7.75;3.78;;;-0.30;99.90;;;;;;5069248;28;20044;-65
2022/01/21 07:27:41;;;;;;;12.98;3.90;;;-0.60;99.90;;;;;;5066776;28;20527;-66
2022/01/21 07:30:08;;;;;;;8.15;4.18;;;-0.70;99.90;;;;;;5059845;28;20100;-67
2022/01/21 07:32:33;;;;;;;;;;;-0.70;99.90;;;;;;5070869;28;20059;-69
2022/01/21 07:34:59;;;;;;;8.65;2.75;;;-0.80;99.90;;;;;;5063371;28;20357;-67
2022/01/21 07:37:25;;;;;;;8.03;3.27;;;-0.90;99.90;;;;;;5072143;28;20099;-67
2022/01/21 07:39:51;;;;;;;7.87;3.57;;;-1.10;99.90;;;;;;5072288;28;20033;-67
2022/01/21 07:42:16;;;;;;;16.15;4.22;;;-1.20;99.90;;;;;;5063392;28;20052;-67
2022/01/21 07:44:42;;;;;;;8.68;4.07;;;-1.20;99.90;;;;;;5061829;28;20090;-68
2022/01/21 07:47:08;;;;;;;8.53;4.20;;;-1.20;99.90;;;;;;5061030;28;20373;-71
2022/01/21 07:49:34;;;;;;;7.53;4.17;;;-1.20;99.90;;;;;;5069598;28;20071;-69
2022/01/21 07:51:59;;;;;;;10.47;3.70;;;-1.10;99.90;;;;;;5068047;28;20273;-68
2022/01/21 07:54:25;;;;;;;7.67;3.13;;;-0.90;99.90;;;;;;5068073;28;20036;-68
2022/01/21 07:56:51;;;;;;;8.85;3.63;;;-0.90;99.90;;;;;;5056590;28;20024;-68
2022/01/21 07:59:17;;;;;;;5.80;3.20;;;-0.80;99.90;;;;;;5072040;28;20430;-68
2022/01/21 08:01:43;;;;;;;8.77;3.50;;;-0.70;99.90;;;;;;5070901;28;20235;-68
2022/01/21 08:04:10;;;;;;;6.80;2.88;;;-0.70;99.90;;;;;;5064817;28;20123;-68
2022/01/21 08:06:36;;;;;;;10.13;3.80;;;-0.60;99.90;;;;;;5069317;28;20031;-68
2022/01/21 08:09:04;;;;;;;16.10;2.90;;;-0.60;99.90;;;;;;5059058;28;20037;-66
2022/01/21 08:11:30;;;;;;;8.25;3.47;;;-0.60;99.90;;;;;;5064222;28;20034;-67
2022/01/21 08:13:55;;;;;;;9.85;3.90;;;-0.60;99.90;;;;;;5060037;28;20029;-67
2022/01/21 08:16:21;;;;;;;8.13;4.10;;;-0.70;99.90;;;;;;5065391;28;20032;-68
2022/01/21 08:18:49;;;;;;;10.10;3.25;;;-0.70;99.90;;;;;;5065393;28;20039;-69
2022/01/21 08:21:18;;;;;;;7.03;3.55;;;-0.80;99.90;;;;;;5058274;28;20028;-68
2022/01/21 08:23:50;;;;;;;7.57;3.85;;;-0.80;99.90;;;;;;5060173;28;20036;-67
2022/01/21 08:26:19;;;;;;;7.32;4.05;;;-0.70;99.90;;;;;;5062991;28;20025;-65
2022/01/21 08:28:45;;;;;;;7.45;3.05;;;-0.60;99.90;;;;;;5063148;28;20025;-66
2022/01/21 08:31:11;;;;;;;6.55;3.33;;;-0.70;99.90;;;;;;5062758;28;20024;-65
2022/01/21 08:33:37;;;;;;;10.77;3.63;;;-0.30;99.90;;;;;;5060686;28;20066;-66
2022/01/21 08:36:04;;;;;;;7.63;3.53;;;-0.30;99.90;;;;;;5062708;28;20029;-65
2022/01/21 08:38:29;;;;;;;11.27;3.80;;;-0.40;99.90;;;;;;5064376;28;20033;-69
2022/01/21 08:40:55;;;;;;;9.20;3.63;;;-0.40;99.90;;;;;;5064808;28;20040;-64
2022/01/21 08:43:21;;;;;;;6.57;3.40;;;-0.50;99.90;;;;;;5057580;28;20039;-67
2022/01/21 08:45:46;;;;;;;11.93;3.97;;;-0.50;99.90;;;;;;5055534;28;20036;-64
2022/01/21 08:48:12;;;;;;;8.00;3.53;;;-0.70;99.90;;;;;;5058730;28;20052;-65
2022/01/21 08:50:38;;;;;;;9.00;4.10;;;-0.70;99.90;;;;;;5055726;28;20558;-65
2022/01/21 08:53:35;;;;;;;12.23;3.47;;;-0.70;99.90;;;;;;5056602;28;20028;-66
2022/01/21 08:55:52;;;;;;;6.97;3.80;;;-0.70;99.90;;;;;;5056288;28;20043;-66
2022/01/21 08:58:18;;;;;;;9.73;4.27;;;-0.70;99.90;;;;;;5056699;28;20029;-64
2022/01/21 09:00:45;;;;;;;6.78;3.58;;;-0.80;99.90;;;;;;5057156;28;20337;-69
2022/01/21 09:03:10;;;;;;;7.75;3.72;;;-0.80;99.90;;;;;;5058526;28;20162;-66
2022/01/21 09:05:36;;;;;;;7.73;4.27;;;-0.80;99.90;;;;;;5056454;28;20666;-67
2022/01/21 09:08:02;;;;;;;7.40;4.00;;;-0.80;99.90;;;;;;5060252;28;20126;-67
2022/01/21 09:10:27;;;;;;;7.00;3.57;;;-0.70;99.90;;;;;;5062257;28;20147;-67
2022/01/21 09:12:53;;;;;;;7.50;3.73;;;-0.70;99.90;;;;;;5051844;28;20163;-67
2022/01/21 09:15:24;;;;;;;7.40;3.23;;;-0.60;99.90;;;;;;5058209;28;20085;-66
2022/01/21 09:17:51;;;;;;;9.98;3.58;;;-0.70;99.90;;;;;;5059018;28;20017;-65
2022/01/21 09:20:17;;;;;;;7.95;3.80;;;-0.60;99.90;;;;;;5058767;28;20500;-66
2022/01/21 09:22:42;;;;;;;8.07;3.77;;;-0.60;99.90;;;;;;5058571;28;20090;-68
2022/01/21 09:25:08;;;;;;;8.97;3.53;;;-0.60;99.90;;;;;;5050024;28;20036;-67
2022/01/21 09:27:35;;;;;;;8.23;3.85;;;-0.50;99.90;;;;;;5056398;28;20028;-66
2022/01/21 09:30:01;;;;;;;9.07;3.65;;;-0.50;99.90;;;;;;5062244;28;20033;-66
2022/01/21 09:32:26;;;;;;;7.72;3.42;;;-0.60;99.90;;;;;;5059146;28;20070;-67
2022/01/21 09:34:52;;;;;;;12.07;3.93;;;-0.60;99.90;;;;;;5059587;28;20033;-67
2022/01/21 09:37:18;;;;;;;9.70;3.23;;;-0.70;99.90;;;;;;5063622;28;20071;-66
2022/01/21 09:39:44;;;;;;;8.27;3.50;;;-0.70;99.90;;;;;;5054514;28;20033;-66
2022/01/21 09:42:13;;;;;;;8.67;3.53;;;-0.70;99.90;;;;;;5057524;28;20341;-68
2022/01/21 09:44:40;;;;;;;12.02;4.00;;;-0.70;99.90;;;;;;5050157;28;20044;-67
2022/01/21 09:47:06;;;;;;;13.23;4.03;;;-0.70;99.90;;;;;;5052535;28;20119;-67
2022/01/21 09:49:34;;;;;;;9.57;4.10;;;-0.70;99.90;;;;;;5056520;28;20079;-67
2022/01/21 09:52:05;;;;;;;9.25;3.90;;;-0.70;99.90;;;;;;5060739;28;20079;-66
2022/01/21 09:54:34;;;;;;;10.38;3.72;;;-0.70;99.90;;;;;;5058995;28;20029;-65
2022/01/21 09:57:02;;;;;;;15.27;4.30;;;-0.80;99.90;;;;;;5061783;28;20444;-67
2022/01/21 09:59:30;;;;;;;11.50;4.00;;;-0.90;99.90;;;;;;5062928;28;20032;-68
2022/01/21 10:02:00;;;;;;;9.82;4.38;;;-0.90;99.90;;;;;;5061581;28;20029;-67
2022/01/21 10:04:31;;;;;;;10.82;4.35;;;-0.90;99.90;;;;;;5057629;28;20035;-67
2022/01/21 10:06:58;;;;;;;8.90;4.13;;;-0.90;99.90;;;;;;5056891;28;20120;-67
2022/01/21 10:09:25;;;;;;;8.85;3.88;;;-1.10;99.90;;;;;;5063786;28;20035;-67
2022/01/21 10:11:52;;;;;;;11.48;5.20;;;-1.10;99.90;;;;;;5064405;28;20053;-68
2022/01/21 10:14:26;;;;;;;7.50;4.03;;;-1.10;99.90;;;;;;5058183;28;20044;-68
2022/01/21 10:16:53;;;;;;;7.75;4.20;;;-1.10;99.90;;;;;;5051171;28;20021;-68
2022/01/21 10:19:33;;;;;;;10.15;4.45;;;-1.00;99.90;;;;;;5058383;28;20160;-66
2022/01/21 10:22:05;;;;;;;11.32;4.63;;;-1.00;99.90;;;;;;5058854;28;20350;-67
2022/01/21 10:24:33;;;;;;;12.50;4.97;;;-0.90;99.90;;;;;;5060114;28;20082;-69
2022/01/21 10:26:59;;;;;;;11.55;4.70;;;-0.80;99.90;;;;;;5057376;28;20123;-67
2022/01/21 10:29:38;;;;;;;13.88;4.38;;;-0.80;99.90;;;;;;5064904;28;20032;-68
2022/01/21 10:32:05;;;;;;;9.68;4.43;;;-0.90;99.90;;;;;;5059184;28;20020;-68
2022/01/21 10:34:43;;;;;;;9.98;5.20;;;-0.90;99.90;;;;;;5062238;28;20025;-68
2022/01/21 10:37:36;;;;;;;8.68;4.63;;;-0.90;99.90;;;;;;5062344;28;20083;-67
2022/01/21 10:40:09;;;;;;;9.68;4.85;;;-1.00;99.90;;;;;;5060525;28;20033;-67
2022/01/21 10:42:36;;;;;;;12.20;4.95;;;-0.90;99.90;;;;;;5058351;28;20060;-67
2022/01/21 10:45:05;;;;;;;11.20;4.38;;;-0.90;99.90;;;;;;5057759;28;20044;-68
2022/01/21 10:47:37;;;;;;;12.18;4.68;;;-0.90;99.90;;;;;;5055047;28;20426;-67
2022/01/21 10:50:12;;;;;;;10.32;4.63;;;-0.80;99.90;;;;;;5058099;28;20174;-67
2022/01/21 10:52:46;;;;;;;16.08;4.75;;;-0.80;99.90;;;;;;5063197;28;20021;-67
2022/01/21 10:55:33;;;;;;;8.55;3.90;;;-0.80;99.90;;;;;;5058200;28;20040;-66
2022/01/21 10:58:04;;;;;;;11.13;3.70;;;-1.30;99.90;;;;;;5069475;28;20037;-67
2022/01/21 11:00:30;;;;;;;10.98;3.88;;;-0.60;99.90;;;;;;5068742;28;20269;-69
2022/01/21 11:03:09;;;;;;;12.20;3.95;;;-0.60;99.90;;;;;;5064465;28;20051;-69
2022/01/21 11:05:40;;;;;;;18.65;6.43;;;-0.60;99.90;;;;;;5065250;28;20419;-64
2022/01/21 11:08:09;;;;;;;8.35;3.92;;;-0.60;99.90;;;;;;5065287;28;20079;-68
2022/01/21 11:10:39;;;;;;;8.43;3.85;;;-0.60;99.90;;;;;;5060104;28;20071;-67
2022/01/21 11:13:18;;;;;;;8.60;3.88;;;-0.50;99.90;;;;;;5062782;28;20082;-67
2022/01/21 11:15:51;;;;;;;7.03;3.30;;;-0.60;99.90;;;;;;5065980;28;20512;-66
2022/01/21 11:18:19;;;;;;;11.15;4.15;;;-0.70;99.90;;;;;;5063724;28;20021;-67
2022/01/21 11:20:49;;;;;;;10.93;3.35;;;-0.70;99.90;;;;;;5062302;28;20123;-66
2022/01/21 11:23:17;;;;;;;12.55;5.25;;;-0.70;99.90;;;;;;5057351;28;20040;-66
2022/01/21 11:25:51;;;;;;;10.20;3.67;;;-0.70;99.90;;;;;;5061463;28;20040;-66
2022/01/21 11:28:19;;;;;;;15.60;6.60;;;-0.70;99.90;;;;;;5065419;28;20044;-66
2022/01/21 11:30:46;;;;;;;11.13;4.53;;;-0.80;99.90;;;;;;5062334;28;20025;-67
2022/01/21 11:33:12;;;;;;;20.92;4.05;;;-0.70;99.90;;;;;;5053781;28;20066;-65
2022/01/21 11:35:39;;;;;;;9.07;3.50;;;-0.70;99.90;;;;;;5061393;28;20060;-68
2022/01/21 11:38:08;;;;;;;7.97;3.42;;;-0.80;99.90;;;;;;5061391;28;20070;-68
2022/01/21 11:40:35;;;;;;;10.05;3.38;;;-0.90;99.90;;;;;;5058201;28;20037;-70
2022/01/21 11:43:03;;;;;;;14.68;3.80;;;-0.80;99.90;;;;;;5060459;28;20051;-69
2022/01/21 11:50:34;;;;;;;11.02;3.83;;;-0.80;99.90;;;;;;5067323;28;20041;-67
2022/01/21 11:53:00;;;;;;;13.55;3.28;;;-0.70;99.90;;;;;;5066876;28;20338;-67
2022/01/21 11:55:48;;;;;;;11.30;3.37;;;-2.20;99.90;;;;;;5059690;28;20033;-68
2022/01/21 11:58:17;;;;;;;14.57;2.67;;;-0.70;99.90;;;;;;5062262;28;20032;-67
2022/01/21 12:00:47;;;;;;;9.50;3.20;;;-0.80;99.90;;;;;;5076861;28;20067;-67
2022/01/21 12:03:14;;;;;;;7.75;3.15;;;-0.80;99.90;;;;;;5067054;28;20030;-67
2022/01/21 12:05:40;;;;;;;7.53;3.05;;;-0.70;99.90;;;;;;5051673;28;20049;-67
2022/01/21 12:08:06;;;;;;;10.20;4.10;;;-0.70;99.90;;;;;;5060745;28;20039;-67
2022/01/21 12:10:33;;;;;;;7.63;3.75;;;-0.80;99.90;;;;;;5057938;28;20047;-67
2022/01/21 12:13:09;;;;;;;8.27;3.05;;;-0.80;99.90;;;;;;5057219;28;20029;-68
2022/01/21 12:20:54;;;;;;;7.15;3.50;;;-0.60;99.90;;;;;;5063765;28;20071;-69
2022/01/21 12:23:22;;;;;;;6.95;3.25;;;-0.50;99.90;;;;;;5052294;28;20033;-66
2022/01/21 12:26:19;;;;;;;10.00;3.28;;;-0.50;99.90;;;;;;5064991;28;20045;-67
2022/01/21 12:28:54;;;;;;;5.97;2.27;;;-0.40;99.90;;;;;;5061937;28;20035;-68
2022/01/21 12:31:23;;;;;;;6.40;2.88;;;-0.30;99.90;;;;;;5058937;28;20295;-68
2022/01/21 12:36:34;;;;;;;5.10;2.97;;;-0.30;99.90;;;;;;5062445;28;20488;-69
2022/01/21 12:41:35;;;;;;;9.60;3.03;;;-0.30;99.90;;;;;;5058885;28;20748;-68
2022/01/21 12:44:05;;;;;;;8.30;3.45;;;-0.30;99.90;;;;;;5059874;28;20033;-67
2022/01/21 12:46:38;;;;;;;6.57;2.88;;;-0.30;99.90;;;;;;5061014;28;20032;-67
2022/01/21 12:49:36;;;;;;;10.45;3.25;;;-0.30;99.90;;;;;;5053014;28;20127;-67
2022/01/21 12:57:30;;;;;;;6.20;3.10;;;-0.40;99.90;;;;;;5054949;28;20070;-68
2022/01/21 12:59:58;;;;;;;8.48;3.00;;;-0.40;99.90;;;;;;5059127;28;20053;-68
2022/01/21 13:02:27;;;;;;;7.90;3.22;;;-0.40;99.90;;;;;;5055888;28;20043;-67
2022/01/21 13:05:30;;;;;;;6.60;3.53;;;-0.40;99.90;;;;;;5059646;28;20567;-66
2022/01/21 13:08:12;;;;;;;7.82;2.75;;;-0.40;99.90;;;;;;5055955;28;20028;-67
2022/01/21 13:10:39;;;;;;;13.35;3.60;;;-0.50;99.90;;;;;;5057901;28;20020;-68
2022/01/21 13:15:49;;;;;;;7.80;3.30;;;-0.70;99.90;;;;;;5055826;28;20093;-70
2022/01/21 13:18:22;;;;;;;7.30;3.30;;;-0.60;99.90;;;;;;5061090;28;20145;-66
2022/01/21 13:20:53;;;;;;;6.93;3.10;;;-0.60;99.90;;;;;;5055893;28;20040;-68
2022/01/21 13:23:56;;;;;;;7.03;3.42;;;-0.60;99.90;;;;;;5055212;28;20087;-69
2022/01/21 13:26:28;;;;;;;8.52;3.67;;;-0.50;99.90;;;;;;5055846;28;20046;-69
2022/01/21 13:28:58;;;;;;;6.95;3.15;;;-0.60;99.90;;;;;;5061680;28;20024;-72
2022/01/21 13:31:25;;;;;;;9.23;3.58;;;-0.60;99.90;;;;;;5058536;28;20502;-72
2022/01/21 13:33:51;;;;;;;;;;;-0.60;99.90;;;;;;5059688;28;20032;-70
2022/01/21 13:36:52;;;;;;;12.82;3.15;;;-0.50;99.90;;;;;;5054970;28;19916;-70
2022/01/21 13:39:34;;;;;;;11.63;3.03;;;-0.50;99.90;;;;;;5059465;28;20532;-72
2022/01/21 13:42:12;;;;;;;12.90;3.05;;;-0.60;99.90;;;;;;5056058;28;20573;-72
2022/01/21 13:44:57;;;;;;;6.65;2.90;;;-0.60;99.90;;;;;;5063155;28;20832;-74
2022/01/21 13:47:44;;;;;;;19.33;3.67;;;-0.60;99.90;;;;;;5055940;28;20087;-70
2022/01/21 13:50:13;;;;;;;6.40;3.10;;;-0.50;99.90;;;;;;5056548;28;20053;-72
2022/01/21 13:52:54;;;;;;;5.25;3.20;;;-0.50;99.90;;;;;;5064464;28;20294;-72
2022/01/21 13:55:25;;;;;;;8.18;3.63;;;-0.50;99.90;;;;;;5059846;28;20244;-72
2022/01/21 13:57:52;;;;;;;16.63;4.40;;;-1.70;99.90;;;;;;5058302;28;20025;-71
2022/01/21 14:00:26;;;;;;;8.13;3.58;;;-0.40;99.90;;;;;;5063584;28;20056;-71
2022/01/21 14:03:08;;;;;;;8.88;3.40;;;-0.40;99.90;;;;;;5053608;28;20068;-72
2022/01/21 14:05:57;;;;;;;12.55;4.60;;;-0.50;99.90;;;;;;5059897;28;20033;-70
2022/01/21 14:08:36;;;;;;;5.03;3.03;;;-0.50;99.90;;;;;;5057991;28;20025;-71
2022/01/21 14:11:13;;;;;;;7.35;3.67;;;-0.50;99.90;;;;;;5060245;28;20102;-71